Time;durP1;ratioP1;P1;durP2;ratioP2;P2;SDS_P1;SDS_P2;PMS_P1;PMS_P2;Temp;Humidity;BMP_temperature;BMP_pressure;BME280_temperature;BME280_humidity;BME280_pressure;Samples;Min_cycle;Max_cycle;Signal;HPM_P1;HPM_P2
2022/07/29 00:00:04;;;;;;;2.80;1.80;;;15.10;99.90;;;;;;5074711;28;20047;-73
2022/07/29 00:02:31;;;;;;;2.65;1.67;;;15.10;99.90;;;;;;5066866;28;20121;-74
2022/07/29 00:04:57;;;;;;;1.75;1.65;;;15.10;99.90;;;;;;5066781;28;20048;-72
2022/07/29 00:07:23;;;;;;;3.22;1.65;;;15.10;99.90;;;;;;5065260;28;20059;-75
2022/07/29 00:09:49;;;;;;;2.00;1.30;;;15.00;99.90;;;;;;5072696;28;20051;-75
2022/07/29 00:12:15;;;;;;;2.88;1.63;;;15.10;99.90;;;;;;5071763;28;20044;-73
2022/07/29 00:14:40;;;;;;;2.72;1.70;;;15.10;99.90;;;;;;5072508;28;20986;-75
2022/07/29 00:17:06;;;;;;;1.67;1.33;;;15.10;99.90;;;;;;5072525;28;20057;-72
2022/07/29 00:19:33;;;;;;;2.33;1.52;;;15.10;99.90;;;;;;5072582;28;20146;-74
2022/07/29 00:22:00;;;;;;;4.82;1.63;;;15.10;99.90;;;;;;5072330;28;20133;-75
2022/07/29 00:24:25;;;;;;;4.32;1.67;;;15.10;99.90;;;;;;5071482;28;20044;-74
2022/07/29 00:26:51;;;;;;;3.50;1.70;;;15.10;99.90;;;;;;5072731;28;20895;-74
2022/07/29 00:29:17;;;;;;;3.38;2.00;;;15.00;99.90;;;;;;5073594;28;20048;-72
2022/07/29 00:31:43;;;;;;;2.83;1.88;;;15.00;99.90;;;;;;5081971;28;20055;-74
2022/07/29 00:35:43;;;;;;;3.17;1.80;;;15.10;99.90;;;;;;5075176;28;21059;-74
2022/07/29 00:36:54;;;;;;;3.22;1.60;;;15.10;99.90;;;;;;5067392;28;20457;-73
2022/07/29 00:39:20;;;;;;;1.63;1.38;;;15.10;99.90;;;;;;5072720;28;20492;-75
2022/07/29 00:41:46;;;;;;;3.50;1.73;;;15.10;99.90;;;;;;5069198;28;20040;-74
2022/07/29 00:44:12;;;;;;;2.20;2.03;;;15.10;99.90;;;;;;5075598;28;20044;-72
2022/07/29 00:46:37;;;;;;;2.85;2.17;;;15.10;99.90;;;;;;5072463;28;20079;-73
2022/07/29 00:49:03;;;;;;;2.22;1.60;;;15.10;99.90;;;;;;5074118;28;20048;-73
2022/07/29 00:51:31;;;;;;;1.67;1.30;;;15.10;99.90;;;;;;5073536;28;20044;-75
2022/07/29 00:53:57;;;;;;;2.30;1.85;;;15.10;99.90;;;;;;5072492;28;20048;-74
2022/07/29 00:56:22;;;;;;;2.72;1.90;;;15.00;99.90;;;;;;5073489;28;20178;-75
2022/07/29 00:58:50;;;;;;;2.75;2.33;;;15.00;99.90;;;;;;5074424;28;20397;-74
2022/07/29 01:01:16;;;;;;;2.13;1.70;;;15.10;99.90;;;;;;5089503;28;20048;-73
2022/07/29 01:03:41;;;;;;;2.60;1.50;;;15.00;99.90;;;;;;5074930;28;20059;-75
2022/07/29 01:06:07;;;;;;;4.05;1.85;;;15.00;99.90;;;;;;5071736;28;20044;-73
2022/07/29 01:08:33;;;;;;;6.03;1.95;;;15.00;99.90;;;;;;5073858;28;20573;-74
2022/07/29 01:11:01;;;;;;;2.50;2.30;;;15.00;99.90;;;;;;5073890;28;20524;-74
2022/07/29 01:13:27;;;;;;;2.70;2.13;;;15.00;99.90;;;;;;5069993;28;20146;-72
2022/07/29 01:16:06;;;;;;;2.10;1.38;;;15.00;99.90;;;;;;5073411;28;20039;-75
2022/07/29 01:18:37;;;;;;;2.42;1.80;;;15.00;99.90;;;;;;5072566;28;20128;-74
2022/07/29 01:21:37;;;;;;;2.83;1.67;;;15.00;99.90;;;;;;5074472;28;20507;-75
2022/07/29 01:24:37;;;;;;;2.45;1.63;;;15.00;99.90;;;;;;5065714;28;20139;-75
2022/07/29 01:27:22;;;;;;;2.67;1.73;;;15.00;99.90;;;;;;5072222;28;20060;-75
2022/07/29 01:29:57;;;;;;;5.05;1.60;;;15.00;99.90;;;;;;5074057;28;20048;-75
2022/07/29 01:32:27;;;;;;;3.58;1.77;;;15.00;99.90;;;;;;5074542;28;20082;-75
2022/07/29 01:35:05;;;;;;;2.90;1.80;;;15.00;99.90;;;;;;5076405;28;20052;-74
2022/07/29 01:38:10;;;;;;;2.60;1.65;;;15.00;99.90;;;;;;5075341;28;20137;-74
2022/07/29 01:40:43;;;;;;;3.40;1.85;;;15.00;99.90;;;;;;5070710;28;20063;-73
2022/07/29 01:43:17;;;;;;;3.77;1.90;;;15.00;99.90;;;;;;5071933;28;20130;-74
2022/07/29 01:45:52;;;;;;;5.13;2.25;;;15.00;99.90;;;;;;5074184;28;20054;-74
2022/07/29 01:48:23;;;;;;;3.33;2.20;;;15.00;99.90;;;;;;5069687;28;20151;-74
2022/07/29 01:50:53;;;;;;;3.38;2.53;;;15.10;99.90;;;;;;5075085;28;20407;-74
2022/07/29 01:53:38;;;;;;;3.58;2.30;;;15.10;99.90;;;;;;5073432;28;20043;-73
2022/07/29 01:56:06;;;;;;;2.63;2.08;;;15.00;99.90;;;;;;5078378;28;20052;-74
2022/07/29 01:58:34;;;;;;;4.45;2.13;;;15.00;99.90;;;;;;5076608;28;20090;-74
2022/07/29 02:01:01;;;;;;;3.55;1.80;;;15.10;99.90;;;;;;5078327;28;20048;-75
2022/07/29 02:03:30;;;;;;;3.08;1.85;;;15.10;99.90;;;;;;5076552;28;20080;-73
2022/07/29 02:05:58;;;;;;;3.58;1.80;;;15.10;99.90;;;;;;5076296;28;20056;-72
2022/07/29 02:08:25;;;;;;;5.03;1.40;;;15.10;99.90;;;;;;5077284;28;20468;-73
2022/07/29 02:10:52;;;;;;;3.83;1.55;;;15.10;99.90;;;;;;5076095;28;20082;-74
2022/07/29 02:13:20;;;;;;;4.25;2.13;;;15.10;99.90;;;;;;5079907;28;20059;-74
2022/07/29 02:15:47;;;;;;;2.35;1.48;;;15.10;99.90;;;;;;5076778;28;20052;-74
2022/07/29 02:18:17;;;;;;;3.60;1.60;;;15.10;99.90;;;;;;5076270;28;20055;-74
2022/07/29 02:20:46;;;;;;;3.50;1.50;;;15.10;99.90;;;;;;5076445;28;20047;-74
2022/07/29 02:23:14;;;;;;;4.10;1.42;;;15.20;99.90;;;;;;5077833;28;20044;-72
2022/07/29 02:25:42;;;;;;;3.13;1.80;;;15.20;99.90;;;;;;5077002;28;20047;-74
2022/07/29 02:28:08;;;;;;;2.22;1.50;;;15.10;99.90;;;;;;5076070;28;20060;-75
2022/07/29 02:30:38;;;;;;;2.75;1.50;;;15.20;99.90;;;;;;5076515;28;20064;-73
2022/07/29 02:33:06;;;;;;;1.83;1.55;;;15.20;99.90;;;;;;5077839;28;20052;-73
2022/07/29 02:35:32;;;;;;;3.13;1.52;;;15.20;99.90;;;;;;5077727;28;20059;-72
2022/07/29 02:40:43;;;;;;;3.58;1.65;;;15.20;99.90;;;;;;5083610;28;20059;-72
2022/07/29 02:43:10;;;;;;;2.17;1.40;;;15.10;99.90;;;;;;5077090;28;20128;-74
2022/07/29 02:45:36;;;;;;;2.78;1.65;;;15.10;99.90;;;;;;5073338;28;20044;-74
2022/07/29 02:48:10;;;;;;;3.70;1.38;;;15.10;99.90;;;;;;5072062;28;20121;-73
2022/07/29 02:50:44;;;;;;;1.70;1.60;;;15.10;99.90;;;;;;5075767;28;20071;-74
2022/07/29 02:53:17;;;;;;;2.70;1.65;;;15.20;99.90;;;;;;5077712;28;20112;-74
2022/07/29 02:55:51;;;;;;;2.35;2.05;;;15.10;99.90;;;;;;5074818;28;20508;-73
2022/07/29 02:58:29;;;;;;;3.17;1.40;;;15.10;99.90;;;;;;5074953;28;20051;-72
2022/07/29 03:01:03;;;;;;;5.70;2.38;;;15.10;99.90;;;;;;5072602;28;20118;-74
2022/07/29 03:03:33;;;;;;;2.33;2.03;;;15.10;99.90;;;;;;5075409;28;20047;-75
2022/07/29 03:06:00;;;;;;;2.28;1.60;;;15.10;99.90;;;;;;5077081;28;20043;-73
2022/07/29 03:08:28;;;;;;;3.83;1.48;;;15.10;99.90;;;;;;5075523;28;20142;-72
2022/07/29 03:10:55;;;;;;;1.88;1.35;;;15.10;99.90;;;;;;5076588;28;20117;-74
2022/07/29 03:13:21;;;;;;;3.65;1.40;;;15.10;99.90;;;;;;5090705;28;20071;-74
2022/07/29 03:15:47;;;;;;;1.70;1.60;;;15.20;99.90;;;;;;5076625;28;20113;-72
2022/07/29 03:18:14;;;;;;;2.67;1.58;;;15.10;99.90;;;;;;5089407;28;20051;-73
2022/07/29 03:20:40;;;;;;;5.43;1.90;;;15.20;99.90;;;;;;5075043;28;20048;-71
2022/07/29 03:23:07;;;;;;;2.30;1.50;;;15.20;99.90;;;;;;5076622;28;20048;-73
2022/07/29 03:25:33;;;;;;;3.95;2.88;;;15.20;99.90;;;;;;5076084;28;20052;-76
2022/07/29 03:27:59;;;;;;;3.05;1.40;;;15.10;99.90;;;;;;5076120;28;20765;-73
2022/07/29 03:30:25;;;;;;;2.25;1.50;;;15.10;99.90;;;;;;5088103;28;20087;-73
2022/07/29 03:32:51;;;;;;;4.15;1.42;;;15.20;99.90;;;;;;5075221;28;20538;-74
2022/07/29 03:35:17;;;;;;;5.38;1.52;;;15.10;99.90;;;;;;5076007;28;20044;-73
2022/07/29 03:37:44;;;;;;;2.15;1.30;;;15.10;99.90;;;;;;5075571;28;20541;-73
2022/07/29 03:40:13;;;;;;;1.63;1.50;;;15.10;99.90;;;;;;5073111;28;20048;-71
2022/07/29 03:42:42;;;;;;;3.28;1.48;;;15.10;99.90;;;;;;5075459;28;20047;-73
2022/07/29 03:45:12;;;;;;;1.73;1.60;;;15.10;99.90;;;;;;5073921;28;20552;-74
2022/07/29 03:47:43;;;;;;;4.13;1.80;;;15.10;99.90;;;;;;5076345;28;20044;-72
2022/07/29 03:50:12;;;;;;;2.17;1.83;;;15.10;99.90;;;;;;5074535;28;20047;-74
2022/07/29 03:52:39;;;;;;;3.13;1.50;;;15.10;99.90;;;;;;5075750;28;20047;-74
2022/07/29 03:55:05;;;;;;;4.32;1.48;;;15.10;99.90;;;;;;5088871;28;20567;-74
2022/07/29 03:57:32;;;;;;;2.00;1.60;;;15.10;99.90;;;;;;5083720;28;20114;-74
2022/07/29 03:59:59;;;;;;;1.83;1.30;;;15.10;99.90;;;;;;5074151;28;20036;-74
2022/07/29 04:02:25;;;;;;;4.55;1.90;;;15.10;99.90;;;;;;5075929;28;20507;-73
2022/07/29 04:04:51;;;;;;;1.90;1.70;;;15.10;99.90;;;;;;5073070;28;20047;-74
2022/07/29 04:07:17;;;;;;;2.35;1.65;;;15.10;99.90;;;;;;5075067;28;20729;-72
2022/07/29 04:09:43;;;;;;;1.95;1.73;;;15.10;99.90;;;;;;5084661;28;20052;-73
2022/07/29 04:12:09;;;;;;;3.13;1.50;;;15.10;99.90;;;;;;5084807;28;20047;-74
2022/07/29 04:14:35;;;;;;;5.55;1.73;;;15.10;99.90;;;;;;5076018;28;20298;-72
2022/07/29 04:17:03;;;;;;;1.73;1.48;;;15.10;99.90;;;;;;5075138;28;20135;-73
2022/07/29 04:19:29;;;;;;;2.35;1.60;;;15.10;99.90;;;;;;5075996;28;20831;-75
2022/07/29 04:21:56;;;;;;;3.58;1.80;;;15.10;99.90;;;;;;5081316;28;21140;-72
2022/07/29 04:24:21;;;;;;;1.70;1.52;;;15.10;99.90;;;;;;5071778;28;20458;-73
2022/07/29 04:26:47;;;;;;;1.98;1.60;;;15.20;99.90;;;;;;5065607;28;20126;-72
2022/07/29 04:29:14;;;;;;;2.00;1.65;;;15.20;99.90;;;;;;5074221;28;20059;-73
2022/07/29 04:31:40;;;;;;;1.95;1.33;;;15.20;99.90;;;;;;5075472;28;20044;-73
2022/07/29 04:34:06;;;;;;;5.07;1.73;;;15.20;99.90;;;;;;5073754;28;20083;-74
2022/07/29 04:36:32;;;;;;;1.98;1.70;;;15.20;99.90;;;;;;5075241;28;20048;-75
2022/07/29 04:38:58;;;;;;;4.03;1.90;;;15.20;99.90;;;;;;5073384;28;20086;-72
2022/07/29 04:41:24;;;;;;;2.30;1.77;;;15.20;99.90;;;;;;5075260;28;20044;-75
2022/07/29 04:43:49;;;;;;;4.60;1.58;;;15.20;99.90;;;;;;5071790;28;20052;-74
2022/07/29 04:46:15;;;;;;;1.85;1.50;;;15.20;99.90;;;;;;5075403;28;20643;-72
2022/07/29 04:48:41;;;;;;;1.90;1.60;;;15.20;99.90;;;;;;5084639;28;20078;-74
2022/07/29 04:51:06;;;;;;;2.47;1.60;;;15.20;99.90;;;;;;5074137;28;20048;-75
2022/07/29 04:53:32;;;;;;;3.00;1.98;;;15.20;99.90;;;;;;5074545;28;20056;-75
2022/07/29 04:55:58;;;;;;;3.08;1.88;;;15.20;99.90;;;;;;5073908;28;20147;-74
2022/07/29 04:58:24;;;;;;;3.92;1.73;;;15.20;99.90;;;;;;5074238;28;20929;-74
2022/07/29 05:00:50;;;;;;;3.30;1.88;;;15.20;99.90;;;;;;5107052;27;20047;-73
2022/07/29 05:03:16;;;;;;;5.70;1.90;;;15.20;99.90;;;;;;5073752;28;20063;-75
2022/07/29 05:05:42;;;;;;;3.72;2.20;;;15.20;99.90;;;;;;5073725;28;20491;-74
2022/07/29 05:08:08;;;;;;;3.65;1.65;;;15.20;99.90;;;;;;5074477;28;20133;-73
2022/07/29 05:10:37;;;;;;;1.80;1.52;;;15.30;99.90;;;;;;5073976;28;20814;-75
2022/07/29 05:13:06;;;;;;;4.07;1.85;;;15.30;99.90;;;;;;5073639;28;20777;-74
2022/07/29 05:15:32;;;;;;;2.40;1.83;;;15.30;99.90;;;;;;5072518;28;20051;-75
2022/07/29 05:17:58;;;;;;;5.57;1.90;;;15.40;99.90;;;;;;5073456;28;20883;-74
2022/07/29 05:20:27;;;;;;;3.28;2.38;;;15.40;99.90;;;;;;5072530;28;20070;-74
2022/07/29 05:22:57;;;;;;;2.15;1.63;;;15.40;99.90;;;;;;5075188;28;20098;-75
2022/07/29 05:25:24;;;;;;;4.72;2.13;;;15.50;99.90;;;;;;5074096;28;20419;-74
2022/07/29 05:27:50;;;;;;;2.53;1.52;;;15.60;99.90;;;;;;5104776;27;20052;-74
2022/07/29 05:30:19;;;;;;;4.47;2.00;;;15.60;99.90;;;;;;5077826;28;20084;-74
2022/07/29 05:32:45;;;;;;;2.50;1.85;;;15.70;99.90;;;;;;5076460;28;20052;-74
2022/07/29 05:35:11;;;;;;;3.22;1.77;;;15.70;99.90;;;;;;5077429;28;20141;-72
2022/07/29 05:37:37;;;;;;;4.60;1.80;;;15.70;99.90;;;;;;5072898;28;20082;-72
2022/07/29 05:40:03;;;;;;;2.45;1.73;;;15.80;99.90;;;;;;5076317;28;20157;-74
2022/07/29 05:42:29;;;;;;;5.38;1.60;;;15.70;99.90;;;;;;5077028;28;20062;-73
2022/07/29 05:44:55;;;;;;;3.00;1.70;;;15.80;99.90;;;;;;5078297;28;20571;-72
2022/07/29 05:47:21;;;;;;;2.83;1.67;;;15.80;99.90;;;;;;5080953;28;20496;-75
2022/07/29 05:49:46;;;;;;;3.53;1.85;;;15.80;99.90;;;;;;5073730;28;20270;-74
2022/07/29 05:52:13;;;;;;;1.98;1.50;;;15.90;99.90;;;;;;5077612;28;20484;-73
2022/07/29 05:54:39;;;;;;;4.75;1.95;;;15.90;99.90;;;;;;5073555;28;20051;-74
2022/07/29 05:57:05;;;;;;;2.60;1.70;;;16.00;99.90;;;;;;5073480;28;21111;-73
2022/07/29 05:59:34;;;;;;;3.15;1.98;;;16.00;99.90;;;;;;5073796;28;20048;-72
2022/07/29 06:02:00;;;;;;;5.28;1.63;;;16.10;99.90;;;;;;5074397;28;20059;-74
2022/07/29 06:04:26;;;;;;;3.17;1.73;;;16.00;99.90;;;;;;5068123;28;20078;-74
2022/07/29 06:06:51;;;;;;;3.50;1.92;;;16.10;99.90;;;;;;5074733;28;20048;-73
2022/07/29 06:09:17;;;;;;;3.88;2.30;;;16.10;99.90;;;;;;5074254;28;20570;-71
2022/07/29 06:11:43;;;;;;;2.05;1.63;;;16.20;99.90;;;;;;5077273;28;20035;-74
2022/07/29 06:14:08;;;;;;;3.70;1.63;;;16.20;99.90;;;;;;5078044;28;20052;-73
2022/07/29 06:16:34;;;;;;;2.97;1.83;;;16.20;99.90;;;;;;5079531;28;20043;-74
2022/07/29 06:19:00;;;;;;;4.90;1.60;;;16.20;99.90;;;;;;5075901;28;20081;-74
2022/07/29 06:21:25;;;;;;;1.65;1.42;;;16.20;99.90;;;;;;5076295;28;20047;-72
2022/07/29 06:23:51;;;;;;;3.47;2.00;;;16.30;99.90;;;;;;5074717;28;20043;-71
2022/07/29 06:26:17;;;;;;;5.32;2.45;;;16.40;99.90;;;;;;5072007;28;20048;-72
2022/07/29 06:28:42;;;;;;;1.70;1.60;;;16.40;99.90;;;;;;5072176;28;20602;-71
2022/07/29 06:31:08;;;;;;;1.80;1.70;;;16.50;99.90;;;;;;5072528;28;20048;-73
2022/07/29 06:33:34;;;;;;;2.00;1.58;;;16.60;99.90;;;;;;5074849;28;20052;-72
2022/07/29 06:36:00;;;;;;;3.35;1.70;;;16.70;99.90;;;;;;5073136;28;20048;-72
2022/07/29 06:38:25;;;;;;;3.75;2.13;;;16.90;99.90;;;;;;5067867;28;20128;-72
2022/07/29 06:41:00;;;;;;;2.88;1.60;;;17.00;99.90;;;;;;5073985;28;20791;-73
2022/07/29 06:43:33;;;;;;;3.75;1.88;;;17.20;99.90;;;;;;5074683;28;20795;-72
2022/07/29 06:46:04;;;;;;;3.30;1.98;;;17.40;99.90;;;;;;5083974;28;20646;-73
2022/07/29 06:48:31;;;;;;;3.78;1.60;;;17.40;99.90;;;;;;5068561;28;20070;-72
2022/07/29 06:50:57;;;;;;;3.00;1.60;;;17.40;99.90;;;;;;5073143;28;20068;-72
2022/07/29 06:53:23;;;;;;;3.50;1.88;;;17.50;99.90;;;;;;5073235;28;20048;-71
2022/07/29 06:55:49;;;;;;;1.67;1.35;;;17.50;99.90;;;;;;5070190;28;20151;-72
2022/07/29 06:58:17;;;;;;;2.35;1.85;;;17.50;99.90;;;;;;5071884;28;20414;-72
2022/07/29 07:00:44;;;;;;;5.38;2.13;;;17.40;99.90;;;;;;5071499;28;20149;-73
2022/07/29 07:03:10;;;;;;;4.95;2.10;;;17.40;99.90;;;;;;5071868;28;20047;-72
2022/07/29 07:05:36;;;;;;;3.63;1.90;;;17.30;99.90;;;;;;5072236;28;20040;-73
2022/07/29 07:08:02;;;;;;;3.40;2.20;;;17.30;99.90;;;;;;5069255;28;20140;-73
2022/07/29 07:10:29;;;;;;;4.15;1.80;;;17.20;99.90;;;;;;5112824;27;21374;-73
2022/07/29 07:12:54;;;;;;;2.72;1.88;;;17.20;99.90;;;;;;5074259;28;20048;-74
2022/07/29 07:15:23;;;;;;;3.75;1.75;;;17.20;99.90;;;;;;5075168;28;20587;-73
2022/07/29 07:17:49;;;;;;;2.42;1.83;;;17.30;99.90;;;;;;5072603;28;20052;-74
2022/07/29 07:20:16;;;;;;;4.43;1.90;;;17.40;99.90;;;;;;5075591;28;20642;-73
2022/07/29 07:22:42;;;;;;;6.28;2.10;;;17.30;99.90;;;;;;5074970;28;20083;-74
2022/07/29 07:25:08;;;;;;;3.22;2.17;;;17.30;99.90;;;;;;5072601;28;20154;-73
2022/07/29 07:27:34;;;;;;;3.25;1.90;;;17.30;99.90;;;;;;5075199;28;20096;-74
2022/07/29 07:30:00;;;;;;;4.30;2.15;;;17.40;99.90;;;;;;5076868;28;20093;-73
2022/07/29 07:32:25;;;;;;;4.00;1.80;;;17.50;99.90;;;;;;5071621;28;20075;-73
2022/07/29 07:34:51;;;;;;;3.85;2.00;;;17.60;99.90;;;;;;5073105;28;20056;-73
2022/07/29 07:37:19;;;;;;;3.20;1.95;;;17.70;99.90;;;;;;5073427;28;20044;-73
2022/07/29 07:39:44;;;;;;;4.82;2.28;;;17.70;99.90;;;;;;5073319;28;20082;-74
2022/07/29 07:42:12;;;;;;;6.68;2.45;;;17.80;99.90;;;;;;5072798;28;20800;-74
2022/07/29 07:44:39;;;;;;;5.35;2.30;;;17.80;99.90;;;;;;5075567;28;20043;-76
2022/07/29 07:47:05;;;;;;;3.67;1.60;;;17.80;99.90;;;;;;5077622;28;20054;-73
2022/07/29 07:49:31;;;;;;;3.50;2.50;;;17.90;99.90;;;;;;5076938;28;20048;-73
2022/07/29 07:51:56;;;;;;;3.17;2.08;;;17.90;99.90;;;;;;5077192;28;20044;-74
2022/07/29 07:54:22;;;;;;;4.80;3.13;;;18.00;99.90;;;;;;5072190;28;20055;-73
2022/07/29 07:56:50;;;;;;;4.18;2.47;;;18.00;99.90;;;;;;5075887;28;20751;-74
2022/07/29 07:59:17;;;;;;;9.20;2.28;;;18.10;99.90;;;;;;5071661;28;20139;-73
2022/07/29 08:01:42;;;;;;;5.95;2.33;;;18.10;99.90;;;;;;5073756;28;20040;-72
2022/07/29 08:04:08;;;;;;;9.30;2.67;;;18.20;99.90;;;;;;5073422;28;20044;-74
2022/07/29 08:06:35;;;;;;;5.03;2.33;;;18.30;99.90;;;;;;5075702;28;20491;-73
2022/07/29 08:09:02;;;;;;;3.80;2.60;;;18.50;99.90;;;;;;5081067;28;20178;-75
2022/07/29 08:11:28;;;;;;;5.38;2.63;;;18.60;99.90;;;;;;5073473;28;20051;-74
2022/07/29 08:13:54;;;;;;;3.97;2.60;;;18.80;99.90;;;;;;5074911;28;20097;-73
2022/07/29 08:16:20;;;;;;;5.60;3.13;;;18.80;99.90;;;;;;5077693;28;20098;-73
2022/07/29 08:18:46;;;;;;;5.13;2.70;;;18.90;99.90;;;;;;5071336;28;20159;-73
2022/07/29 08:21:14;;;;;;;3.63;2.65;;;18.80;99.90;;;;;;5074445;28;20052;-73
2022/07/29 08:23:44;;;;;;;4.97;2.40;;;18.70;99.90;;;;;;5074006;28;20043;-73
2022/07/29 08:26:11;;;;;;;6.32;2.85;;;18.70;99.90;;;;;;5077147;28;20121;-73
2022/07/29 08:28:37;;;;;;;6.70;2.53;;;18.70;99.90;;;;;;5074004;28;20233;-73
2022/07/29 08:31:03;;;;;;;3.05;2.67;;;18.80;99.90;;;;;;5074990;28;20105;-74
2022/07/29 08:33:29;;;;;;;6.88;2.85;;;18.80;99.90;;;;;;5074865;28;20056;-73
2022/07/29 08:35:55;;;;;;;5.75;2.80;;;18.70;99.90;;;;;;5074269;28;20562;-72
2022/07/29 08:38:20;;;;;;;5.13;2.60;;;18.70;99.90;;;;;;5077780;28;20409;-73
2022/07/29 08:40:46;;;;;;;6.45;2.97;;;18.70;99.90;;;;;;5073751;28;20046;-73
2022/07/29 08:43:12;;;;;;;6.70;2.80;;;18.80;99.90;;;;;;5076525;28;20044;-74
2022/07/29 08:45:47;;;;;;;9.23;3.08;;;18.70;99.90;;;;;;5074675;28;20087;-73
2022/07/29 08:48:14;;;;;;;4.53;2.83;;;18.60;99.90;;;;;;5074247;28;20502;-72
2022/07/29 08:50:42;;;;;;;3.95;2.55;;;18.50;99.90;;;;;;5073239;28;20040;-73
2022/07/29 08:53:11;;;;;;;5.55;2.92;;;18.60;99.90;;;;;;5077324;28;20044;-72
2022/07/29 08:55:43;;;;;;;6.55;2.38;;;18.60;99.90;;;;;;5078126;28;20036;-73
2022/07/29 08:58:10;;;;;;;3.90;2.20;;;18.70;99.90;;;;;;5077062;28;20060;-72
2022/07/29 09:00:40;;;;;;;3.70;2.28;;;18.80;99.90;;;;;;5060717;28;21178;-71
2022/07/29 09:03:07;;;;;;;3.45;2.25;;;19.10;99.90;;;;;;5070747;28;20109;-74
2022/07/29 09:05:34;;;;;;;3.17;2.80;;;19.40;99.90;;;;;;5077519;28;20048;-77
2022/07/29 09:08:01;;;;;;;3.08;2.40;;;19.90;99.60;;;;;;5080503;28;20061;-74
2022/07/29 09:10:27;;;;;;;3.42;2.42;;;20.20;99.00;;;;;;5076244;28;20052;-75
2022/07/29 09:12:54;;;;;;;3.85;2.28;;;20.40;98.80;;;;;;5079789;28;20052;-73
2022/07/29 09:15:20;;;;;;;3.85;2.03;;;20.40;98.40;;;;;;5079484;28;20051;-74
2022/07/29 09:17:49;;;;;;;3.70;2.13;;;20.30;98.20;;;;;;5081341;28;20047;-75
2022/07/29 09:20:19;;;;;;;4.45;2.13;;;20.30;98.10;;;;;;5078100;28;20304;-74
2022/07/29 09:22:48;;;;;;;3.28;2.17;;;20.20;98.20;;;;;;5080105;28;20043;-74
2022/07/29 09:25:30;;;;;;;4.05;2.33;;;19.90;98.20;;;;;;5084981;28;20051;-74
2022/07/29 09:28:12;;;;;;;2.90;2.58;;;19.90;98.70;;;;;;5078205;28;20070;-74
2022/07/29 09:30:58;;;;;;;3.75;2.53;;;19.80;98.80;;;;;;5076887;28;20091;-72
2022/07/29 09:33:39;;;;;;;5.10;2.95;;;19.70;98.40;;;;;;5079038;28;20098;-74
2022/07/29 09:36:07;;;;;;;4.85;2.67;;;19.60;98.40;;;;;;5078453;28;20118;-73
2022/07/29 09:38:33;;;;;;;4.18;2.40;;;19.50;98.90;;;;;;5080572;28;20055;-73
2022/07/29 09:41:01;;;;;;;5.70;2.13;;;19.70;98.70;;;;;;5079798;28;20060;-74
2022/07/29 09:43:28;;;;;;;3.28;2.10;;;19.80;98.70;;;;;;5077261;28;20056;-72
2022/07/29 09:45:53;;;;;;;4.70;2.50;;;19.80;98.40;;;;;;5079311;28;20046;-75
2022/07/29 09:48:24;;;;;;;3.03;2.10;;;19.90;98.20;;;;;;5078298;28;20044;-75
2022/07/29 09:50:52;;;;;;;6.03;2.53;;;20.00;98.20;;;;;;5078919;28;20150;-74
2022/07/29 09:53:34;;;;;;;4.75;2.40;;;20.10;98.10;;;;;;5078152;28;20055;-73
2022/07/29 09:56:00;;;;;;;4.32;2.00;;;20.00;97.90;;;;;;5079753;28;20056;-76
2022/07/29 09:58:26;;;;;;;5.82;2.47;;;20.00;98.40;;;;;;5079546;28;20066;-73
2022/07/29 10:00:54;;;;;;;2.28;2.00;;;20.00;98.40;;;;;;5078610;28;20048;-72
2022/07/29 10:03:20;;;;;;;3.83;2.40;;;20.10;98.20;;;;;;5078152;28;20051;-74
2022/07/29 10:06:03;;;;;;;5.85;2.78;;;20.00;98.00;;;;;;5076868;28;20075;-74
2022/07/29 10:08:30;;;;;;;4.15;2.30;;;20.00;98.20;;;;;;5078576;28;20119;-75
2022/07/29 10:11:12;;;;;;;4.72;2.30;;;19.90;98.30;;;;;;5078070;28;20043;-72
2022/07/29 10:13:39;;;;;;;5.18;2.38;;;19.90;98.50;;;;;;5077568;28;20048;-73
2022/07/29 10:16:05;;;;;;;4.57;2.40;;;20.00;98.80;;;;;;5076434;28;20055;-73
2022/07/29 10:18:32;;;;;;;2.37;2.13;;;20.10;98.80;;;;;;5078325;28;20404;-75
2022/07/29 10:21:00;;;;;;;3.72;2.63;;;20.10;98.70;;;;;;5076638;28;20044;-74
2022/07/29 10:23:29;;;;;;;3.50;2.25;;;20.10;98.40;;;;;;5075144;28;20052;-74
2022/07/29 10:25:55;;;;;;;3.53;2.45;;;20.10;98.40;;;;;;5072181;28;20453;-71
2022/07/29 10:28:21;;;;;;;3.53;2.00;;;19.90;98.40;;;;;;5083191;28;20063;-75
2022/07/29 10:30:50;;;;;;;2.35;2.00;;;20.00;98.60;;;;;;5060276;28;20071;-74
2022/07/29 10:33:21;;;;;;;7.10;2.35;;;20.10;98.20;;;;;;5078042;28;20113;-75
2022/07/29 10:36:10;;;;;;;6.45;2.90;;;20.10;97.90;;;;;;5076813;28;20732;-74
2022/07/29 10:38:53;;;;;;;6.05;2.17;;;20.10;97.80;;;;;;5077037;28;20461;-74
2022/07/29 10:41:28;;;;;;;;;;;20.30;98.30;;;;;;5085224;28;20078;-73
2022/07/29 10:44:03;;;;;;;3.95;2.80;;;20.20;97.60;;;;;;5077460;28;19931;-73
2022/07/29 10:46:38;;;;;;;4.60;3.60;;;20.30;98.40;;;;;;5081098;28;20499;-72
2022/07/29 10:49:12;;;;;;;4.72;2.45;;;20.30;98.30;;;;;;5076063;28;20044;-73
2022/07/29 10:52:04;;;;;;;4.50;2.72;;;20.30;98.00;;;;;;5077541;28;20052;-72
2022/07/29 10:54:36;;;;;;;4.93;2.22;;;20.40;97.40;;;;;;5078300;28;20039;-74
2022/07/29 10:57:21;;;;;;;4.23;2.60;;;20.40;98.30;;;;;;5066703;28;20080;-73
2022/07/29 11:00:08;;;;;;;4.45;2.45;;;20.60;98.50;;;;;;5076856;28;20333;-73
2022/07/29 11:02:35;;;;;;;2.97;2.40;;;20.70;98.10;;;;;;5077385;28;20044;-75
2022/07/29 11:05:06;;;;;;;4.85;2.55;;;20.80;98.10;;;;;;5084794;28;20408;-73
2022/07/29 11:07:35;;;;;;;4.38;2.65;;;21.00;97.70;;;;;;5076409;28;20446;-74
2022/07/29 11:10:12;;;;;;;4.03;3.00;;;21.10;97.50;;;;;;5078361;28;20039;-73
2022/07/29 11:12:38;;;;;;;11.80;2.70;;;21.10;97.00;;;;;;5076714;28;20166;-72
2022/07/29 11:15:12;;;;;;;3.15;2.42;;;21.10;97.40;;;;;;5077066;28;20407;-73
2022/07/29 11:18:02;;;;;;;5.05;2.30;;;21.20;97.30;;;;;;5076969;28;20570;-72
2022/07/29 11:20:30;;;;;;;5.93;3.10;;;21.40;96.70;;;;;;5075944;28;20047;-72
2022/07/29 11:22:56;;;;;;;5.35;2.67;;;21.50;96.80;;;;;;5060066;28;20127;-71
2022/07/29 11:25:22;;;;;;;3.95;2.42;;;21.50;96.90;;;;;;5057374;28;20051;-74
2022/07/29 11:27:47;;;;;;;5.00;2.95;;;21.60;96.60;;;;;;5074537;28;20056;-73
2022/07/29 11:30:13;;;;;;;5.07;2.50;;;21.60;96.50;;;;;;5076676;28;20578;-73
2022/07/29 11:32:43;;;;;;;6.90;2.83;;;21.70;96.50;;;;;;5077079;28;20098;-72
2022/07/29 11:35:23;;;;;;;5.82;2.90;;;21.80;96.20;;;;;;5076864;28;20393;-74
2022/07/29 11:38:24;;;;;;;7.25;3.28;;;21.90;95.90;;;;;;5077766;28;20082;-74
2022/07/29 11:41:29;;;;;;;5.65;3.58;;;21.90;95.50;;;;;;5087120;28;20035;-71
2022/07/29 11:43:57;;;;;;;3.80;2.75;;;22.10;95.20;;;;;;5069446;28;20070;-71
2022/07/29 11:46:46;;;;;;;7.15;3.20;;;22.30;95.20;;;;;;5074567;28;20047;-71
2022/07/29 11:49:12;;;;;;;3.00;2.70;;;22.30;95.10;;;;;;5071577;28;20052;-70
2022/07/29 11:51:39;;;;;;;4.22;2.83;;;22.30;95.10;;;;;;5072453;28;20293;-70
2022/07/29 11:54:08;;;;;;;5.22;3.30;;;22.50;95.00;;;;;;5070419;28;20051;-71
2022/07/29 11:56:38;;;;;;;6.07;2.63;;;22.60;94.80;;;;;;5072539;28;20518;-70
2022/07/29 11:59:06;;;;;;;7.05;3.03;;;22.80;94.80;;;;;;5072136;28;20055;-71
2022/07/29 12:01:32;;;;;;;7.18;3.03;;;23.00;94.40;;;;;;5070045;28;20051;-71
2022/07/29 12:04:07;;;;;;;9.15;2.80;;;23.20;94.10;;;;;;5071691;28;20058;-70
2022/07/29 12:06:36;;;;;;;4.18;2.50;;;23.40;93.70;;;;;;5067282;28;20048;-71
2022/07/29 12:09:08;;;;;;;4.60;2.58;;;23.50;93.70;;;;;;5070915;28;20048;-71
2022/07/29 12:11:34;;;;;;;6.57;3.38;;;23.50;93.70;;;;;;5074389;28;20122;-70
2022/07/29 12:13:59;;;;;;;4.38;2.75;;;23.60;93.70;;;;;;5072630;28;20051;-71
2022/07/29 12:16:35;;;;;;;5.43;2.35;;;23.70;93.80;;;;;;5071651;28;20140;-71
2022/07/29 12:19:02;;;;;;;4.97;2.70;;;23.80;93.20;;;;;;5071763;28;20499;-72
2022/07/29 12:21:29;;;;;;;5.43;2.55;;;23.80;93.40;;;;;;5079471;28;20083;-72
2022/07/29 12:23:56;;;;;;;5.68;3.13;;;23.80;93.40;;;;;;5072367;28;20123;-71
2022/07/29 12:26:22;;;;;;;7.28;3.30;;;23.80;93.50;;;;;;5081721;28;20047;-71
2022/07/29 12:28:48;;;;;;;5.60;3.35;;;23.80;93.40;;;;;;5068809;28;20485;-72
2022/07/29 12:31:15;;;;;;;5.90;2.30;;;23.80;93.40;;;;;;5074373;28;20052;-72
2022/07/29 12:33:41;;;;;;;7.05;3.00;;;23.80;93.60;;;;;;5073039;28;20065;-72
2022/07/29 12:36:07;;;;;;;7.60;3.33;;;23.80;93.50;;;;;;5073099;28;20412;-72
2022/07/29 12:38:36;;;;;;;5.28;3.10;;;23.80;93.40;;;;;;5077638;28;20079;-71
2022/07/29 12:41:03;;;;;;;4.70;3.17;;;23.90;93.20;;;;;;5072575;28;20091;-71
2022/07/29 12:43:29;;;;;;;8.05;2.85;;;23.70;93.10;;;;;;5070884;28;20475;-71
2022/07/29 12:45:56;;;;;;;5.70;3.35;;;23.80;92.90;;;;;;5070932;28;20618;-71
2022/07/29 12:48:40;;;;;;;5.22;3.22;;;23.70;93.10;;;;;;5073796;28;20060;-71
2022/07/29 12:51:08;;;;;;;5.07;2.92;;;23.70;93.30;;;;;;5071744;28;20437;-71
2022/07/29 12:53:34;;;;;;;8.73;3.15;;;23.80;93.30;;;;;;5070415;28;20722;-72
2022/07/29 12:56:03;;;;;;;4.65;3.00;;;24.00;93.20;;;;;;5071311;28;20044;-72
2022/07/29 12:58:33;;;;;;;5.88;3.10;;;24.30;92.90;;;;;;5071213;28;20351;-72